< < Back
Terminal Aerodrome Forecast


Current Version              Previous Versions:   1  2  3  4  5  6  7  8  9  

Terminal Aerodrome Forecast

678
FTUS42 KCAE 252000 AAA
TAFAGS
TAF AMD
KAGS 252038Z 2521/2618 22009KT P6SM SKC
     FM260400 23006KT P6SM BKN035 OVC100
     FM261400 29012KT P6SM SCT025 BKN100=



Latest METAR

980
SAUS70 KWBC 260000 RRA
MTRAGS
METAR KAGS 252353Z 19004KT 10SM CLR 09/M01 A2983 RMK AO2 SLP100
T00891006 10167 20083 55000


USA.gov is the U.S. government's official web portal to all federal, state and local government web resources and services.